createdAt,value
2023-02-16T00:06:06.210Z,2288.64269
2023-02-16T00:21:08.144Z,2294.52106
2023-02-16T00:36:10.224Z,2306.36884
2023-02-16T00:51:25.161Z,2320.34683
2023-02-16T01:06:28.285Z,2326.3894
2023-02-16T01:21:30.277Z,2244.55662
2023-02-16T01:36:32.236Z,2271.18695
2023-02-16T01:51:34.251Z,2410.07245
2023-02-16T02:06:36.198Z,2445.25599
2023-02-16T02:21:38.092Z,2392.85765
2023-02-16T02:36:40.369Z,2207.57876
2023-02-16T02:51:42.806Z,2202.13691
2023-02-16T03:06:44.951Z,2278.91207
2023-02-16T03:21:46.941Z,2377.99519
2023-02-16T03:36:48.861Z,2589.3725
2023-02-16T03:51:50.672Z,2650.84127
2023-02-16T04:06:52.575Z,2671.98457
2023-02-16T04:21:54.524Z,2745.90216
2023-02-16T04:36:56.463Z,2835.97936
2023-02-16T04:51:58.421Z,2925.76472
2023-02-16T05:07:00.369Z,2661.37093
2023-02-16T05:22:02.291Z,2715.29941
2023-02-16T05:37:04.250Z,2726.34844
2023-02-16T05:52:06.213Z,2554.81462
2023-02-16T06:07:08.124Z,2569.51154
2023-02-16T06:22:10.095Z,2622.30972
2023-02-16T06:37:12.066Z,2591.87673
2023-02-16T06:52:13.996Z,2653.46587
2023-02-16T07:07:15.955Z,2866.31069
2023-02-16T07:22:17.902Z,2875.53701
2023-02-16T07:37:19.838Z,2935.37841
2023-02-16T07:52:21.759Z,2991.07196
2023-02-16T08:07:23.681Z,3031.67469
2023-02-16T08:22:25.627Z,3075.15826
2023-02-16T08:37:27.536Z,3071.63372
2023-02-16T08:52:29.402Z,3123.54361
2023-02-16T09:07:31.323Z,3184.78955
2023-02-16T09:22:33.260Z,3226.97219
2023-02-16T09:37:35.161Z,3298.46203
2023-02-16T09:52:37.094Z,3329.19303
2023-02-16T10:07:39.024Z,3438.10184
2023-02-16T10:22:40.972Z,3347.90805
2023-02-16T10:37:42.923Z,3388.1168
2023-02-16T10:52:44.805Z,3392.40555
2023-02-16T11:07:46.704Z,3388.1168
2023-02-16T11:22:48.673Z,3409.6697
2023-02-16T11:37:50.587Z,3449.16394
2023-02-16T11:52:52.462Z,3453.60874
2023-02-16T12:07:54.362Z,3458.06501
2023-02-16T12:22:56.325Z,3491.85717
2023-02-16T12:37:58.343Z,3528.63775
2023-02-16T12:53:00.231Z,3535.62054
2023-02-16T13:08:02.315Z,3568.57572
2023-02-16T13:23:04.312Z,3542.63103
2023-02-16T13:38:06.242Z,3544.97404
2023-02-16T13:53:08.115Z,3563.83028
2023-02-16T14:08:10.063Z,3575.71764
2023-02-16T14:23:12.032Z,3517.06086
2023-02-16T14:38:14.044Z,3494.13348
2023-02-16T14:53:16.007Z,3306.60135
2023-02-16T15:08:17.931Z,3232.8111
2023-02-16T15:23:19.866Z,3228.91615
2023-02-16T15:38:22.050Z,3186.68301
2023-02-16T15:53:23.991Z,3205.74211
2023-02-16T16:08:25.890Z,3211.50438
2023-02-16T16:23:27.851Z,3221.15433
2023-02-16T16:38:29.777Z,3205.74211
2023-02-16T16:53:31.729Z,2690.76357
2023-02-16T17:08:33.620Z,2562.14201
2023-02-16T17:23:35.534Z,2481.482
2023-02-16T17:38:37.479Z,2397.13826
2023-02-16T17:53:40.715Z,2265.42739
2023-02-16T18:08:43.194Z,2173.56093
2023-02-16T18:23:45.103Z,2048.93016
2023-02-16T18:38:47.033Z,1907.47381
2023-02-16T18:53:48.969Z,1898.01749
2023-02-16T19:08:50.893Z,1917.02482
2023-02-16T19:23:52.778Z,1959.06483
2023-02-16T19:38:54.667Z,2008.996
2023-02-16T19:53:56.814Z,2053.64035
2023-02-16T20:08:58.721Z,2079.13161
2023-02-16T20:24:00.647Z,2045.80203
2023-02-16T20:39:02.657Z,2087.22792
2023-02-16T20:54:04.558Z,2144.0005
2023-02-16T21:09:06.530Z,2229.61781
2023-02-16T21:24:08.453Z,2306.36884
2023-02-16T21:39:10.471Z,2377.99519
2023-02-16T21:54:14.169Z,2429.73759
2023-02-16T22:09:16.406Z,2470.0466
2023-02-16T22:24:18.398Z,2507.01642
2023-02-16T22:39:20.285Z,2514.07181
2023-02-16T22:54:22.182Z,2502.33478
2023-02-16T23:09:24.154Z,2275.04295
2023-02-16T23:24:26.063Z,2244.55662
2023-02-16T23:39:27.988Z,2250.21041
2023-02-16T23:54:29.893Z,2280.85157
